createdAt,value
2022-08-07T00:01:44.704Z,39.51
2022-08-07T00:04:15.856Z,39.65
2022-08-07T00:06:51.575Z,39.66
2022-08-07T00:09:22.659Z,39.32
2022-08-07T00:11:55.877Z,39.66
2022-08-07T00:14:31.456Z,39.50
2022-08-07T00:17:02.581Z,39.52
2022-08-07T00:19:59.969Z,39.26
2022-08-07T00:22:24.441Z,38.90
2022-08-07T00:25:15.691Z,38.88
2022-08-07T00:27:52.509Z,38.87
2022-08-07T00:30:27.764Z,39.30
2022-08-07T00:32:58.455Z,38.82
2022-08-07T00:35:29.630Z,38.64
2022-08-07T00:38:00.288Z,38.48
2022-08-07T00:40:36.585Z,38.42
2022-08-07T00:43:58.689Z,38.25
2022-08-07T00:46:01.715Z,38.09
2022-08-07T00:48:32.512Z,38.47
2022-08-07T00:51:03.121Z,38.03
2022-08-07T00:53:39.036Z,38.41
2022-08-07T00:56:19.108Z,37.83
2022-08-07T00:58:49.791Z,38.08
2022-08-07T01:01:20.827Z,38.08
2022-08-07T01:03:56.438Z,38.53
2022-08-07T01:06:29.662Z,38.60
2022-08-07T01:09:00.932Z,38.25
2022-08-07T01:12:08.889Z,38.16
2022-08-07T01:14:28.307Z,38.30
2022-08-07T01:16:58.290Z,37.89
2022-08-07T01:19:32.490Z,38.05
2022-08-07T01:22:03.461Z,38.74
2022-08-07T01:24:42.515Z,38.36
2022-08-07T01:27:19.602Z,36.74
2022-08-07T01:29:50.767Z,37.66
2022-08-07T01:32:22.329Z,38.24
2022-08-07T01:34:55.403Z,38.31
2022-08-07T01:37:24.140Z,36.52
2022-08-07T01:39:59.402Z,37.32
2022-08-07T01:42:38.812Z,37.72
2022-08-07T01:45:17.850Z,38.12
2022-08-07T01:48:21.064Z,37.95
2022-08-07T01:50:46.307Z,38.28
2022-08-07T01:53:20.918Z,38.14
2022-08-07T01:56:05.438Z,38.43
2022-08-07T01:58:41.074Z,38.00
2022-08-07T02:01:44.771Z,37.91
2022-08-07T02:04:26.671Z,37.49
2022-08-07T02:07:03.104Z,37.95
2022-08-07T02:09:51.631Z,38.06
2022-08-07T02:12:31.020Z,38.25
2022-08-07T02:15:06.916Z,38.77
2022-08-07T02:17:41.662Z,38.64
2022-08-07T02:20:23.678Z,38.36
2022-08-07T02:23:00.211Z,38.57
2022-08-07T02:26:11.399Z,38.91
2022-08-07T02:28:25.624Z,39.00
2022-08-07T02:31:19.131Z,39.10
2022-08-07T02:34:01.620Z,38.40
2022-08-07T02:36:38.607Z,38.89
2022-08-07T02:39:17.278Z,38.78
2022-08-07T02:42:03.562Z,38.67
2022-08-07T02:44:48.371Z,38.84
2022-08-07T02:47:23.422Z,38.83
2022-08-07T02:50:00.412Z,39.11
2022-08-07T02:52:39.045Z,39.10
2022-08-07T02:55:28.414Z,39.66
2022-08-07T02:58:10.141Z,39.63
2022-08-07T03:00:42.101Z,39.66
2022-08-07T03:03:22.575Z,39.55
2022-08-07T03:05:56.661Z,39.69
2022-08-07T03:08:29.113Z,39.73
2022-08-07T03:11:01.761Z,39.41
2022-08-07T03:13:38.677Z,39.47
2022-08-07T03:16:10.800Z,39.56
2022-08-07T03:18:40.884Z,39.25
2022-08-07T03:21:13.925Z,39.08
2022-08-07T03:24:20.591Z,39.24
2022-08-07T03:26:51.298Z,39.22
2022-08-07T03:29:37.526Z,38.87
2022-08-07T03:32:13.444Z,39.33
2022-08-07T03:34:47.387Z,39.18
2022-08-07T03:37:45.922Z,38.63
2022-08-07T03:40:16.882Z,38.89
2022-08-07T03:42:46.631Z,38.33
2022-08-07T03:45:30.229Z,38.22
2022-08-07T03:48:10.017Z,38.04
2022-08-07T03:50:43.225Z,38.15
2022-08-07T03:53:50.122Z,37.86
2022-08-07T03:56:33.290Z,37.47
2022-08-07T03:59:09.479Z,37.23
2022-08-07T04:01:45.576Z,35.60
2022-08-07T04:04:17.945Z,36.63
2022-08-07T04:06:51.840Z,36.61
2022-08-07T04:09:23.683Z,36.62
2022-08-07T04:12:25.455Z,36.48
2022-08-07T04:14:49.195Z,36.23
2022-08-07T04:17:21.901Z,36.10
2022-08-07T04:19:56.410Z,35.84
2022-08-07T04:22:30.133Z,35.88
2022-08-07T04:25:08.882Z,35.65
2022-08-07T04:27:46.211Z,35.48
2022-08-07T04:30:43.734Z,35.47
2022-08-07T04:33:24.762Z,35.16
2022-08-07T04:35:55.497Z,35.24
2022-08-07T04:38:29.742Z,35.63
2022-08-07T04:40:59.699Z,35.40
2022-08-07T04:44:13.090Z,34.96
2022-08-07T04:47:04.575Z,34.54
2022-08-07T04:49:57.835Z,34.65
2022-08-07T04:52:50.879Z,34.22
2022-08-07T04:58:09.709Z,34.04
2022-08-07T04:59:17.479Z,33.70
2022-08-07T05:01:43.022Z,33.67
2022-08-07T05:04:17.438Z,32.50
2022-08-07T05:07:36.870Z,32.30
2022-08-07T05:10:29.544Z,32.72
2022-08-07T05:14:44.431Z,32.66
2022-08-07T05:15:58.640Z,32.50
2022-08-07T05:18:32.966Z,32.64
2022-08-07T05:21:05.466Z,32.19
2022-08-07T05:23:47.694Z,31.79
2022-08-07T05:26:24.560Z,31.72
2022-08-07T05:29:05.294Z,31.96
2022-08-07T05:31:39.864Z,31.78
2022-08-07T05:34:17.285Z,31.55
2022-08-07T05:36:52.832Z,31.42
2022-08-07T05:40:05.753Z,31.02
2022-08-07T05:42:34.268Z,30.19
2022-08-07T05:45:25.808Z,30.36
2022-08-07T05:48:03.654Z,30.13
2022-08-07T05:50:46.917Z,30.05
2022-08-07T05:54:12.781Z,30.00
2022-08-07T05:56:12.368Z,29.57
2022-08-07T05:58:49.183Z,28.82
2022-08-07T06:01:35.901Z,29.15
2022-08-07T06:04:09.508Z,28.70
2022-08-07T06:06:46.311Z,28.84
2022-08-07T06:09:17.809Z,28.56
2022-08-07T06:11:48.984Z,28.53
2022-08-07T06:14:28.941Z,28.02
2022-08-07T06:17:07.354Z,27.79
2022-08-07T06:19:57.614Z,27.37
2022-08-07T06:22:38.542Z,27.07
2022-08-07T06:25:34.906Z,27.28
2022-08-07T06:28:07.409Z,27.58
2022-08-07T06:30:42.688Z,26.94
2022-08-07T06:33:19.412Z,27.24
2022-08-07T06:36:13.488Z,26.83
2022-08-07T06:38:51.207Z,26.49
2022-08-07T06:42:02.477Z,26.10
2022-08-07T06:44:36.787Z,26.62
2022-08-07T06:47:12.151Z,26.05
2022-08-07T06:49:52.395Z,25.11
2022-08-07T06:52:37.670Z,25.06
2022-08-07T06:55:33.474Z,26.11
2022-08-07T06:58:10.956Z,25.70
2022-08-07T07:00:53.912Z,25.77
2022-08-07T07:03:39.647Z,25.93
2022-08-07T07:06:13.552Z,24.84
2022-08-07T07:08:52.980Z,25.36
2022-08-07T07:12:08.868Z,25.19
2022-08-07T07:14:14.113Z,24.77
2022-08-07T07:16:51.066Z,24.60
2022-08-07T07:19:55.895Z,24.49
2022-08-07T07:22:36.930Z,23.47
2022-08-07T07:26:31.280Z,23.93
2022-08-07T07:28:29.482Z,24.07
2022-08-07T07:31:01.585Z,24.44
2022-08-07T07:33:34.416Z,25.00
2022-08-07T07:36:05.291Z,25.11
2022-08-07T07:38:36.063Z,23.98
2022-08-07T07:41:09.387Z,23.14
2022-08-07T07:44:14.203Z,23.37
2022-08-07T07:46:54.694Z,22.79
2022-08-07T07:50:35.772Z,23.40
2022-08-07T07:52:19.279Z,23.27
2022-08-07T07:54:50.552Z,23.19
2022-08-07T07:57:50.296Z,22.95
2022-08-07T08:00:29.075Z,22.47
2022-08-07T08:03:08.257Z,22.03
2022-08-07T08:05:50.786Z,21.56
2022-08-07T08:08:34.327Z,21.74
2022-08-07T08:11:16.100Z,21.76
2022-08-07T08:13:53.909Z,21.69
2022-08-07T08:16:31.018Z,21.39
2022-08-07T08:19:17.312Z,21.17
2022-08-07T08:22:08.108Z,20.45
2022-08-07T08:25:24.570Z,20.15
2022-08-07T08:28:04.058Z,20.00
2022-08-07T08:30:42.623Z,20.28
2022-08-07T08:33:21.993Z,19.71
2022-08-07T08:35:56.090Z,20.17
2022-08-07T08:38:38.131Z,19.16
2022-08-07T08:41:21.717Z,19.42
2022-08-07T08:44:09.899Z,20.37
2022-08-07T08:47:10.005Z,19.97
2022-08-07T08:50:04.829Z,19.55
2022-08-07T08:52:40.889Z,19.81
2022-08-07T08:55:58.579Z,19.24
2022-08-07T08:58:30.756Z,18.21
2022-08-07T09:01:16.178Z,16.78
2022-08-07T09:04:08.749Z,15.62
2022-08-07T09:07:24.465Z,15.38
2022-08-07T09:10:17.848Z,14.10
2022-08-07T09:13:07.287Z,13.33
2022-08-07T09:16:22.154Z,12.30
2022-08-07T09:18:34.941Z,11.95
2022-08-07T09:21:57.705Z,10.58
2022-08-07T09:24:55.124Z,11.01
2022-08-07T09:28:00.585Z,11.31
2022-08-07T09:30:46.746Z,10.45
2022-08-07T09:33:53.187Z,10.29
2022-08-07T09:36:37.511Z,8.26
2022-08-07T09:39:53.988Z,8.49
2022-08-07T09:42:58.233Z,7.70
2022-08-07T09:47:50.136Z,7.17
2022-08-07T09:50:01.257Z,7.62
2022-08-07T09:52:34.295Z,6.76
2022-08-07T09:55:29.426Z,6.90
2022-08-07T09:58:32.389Z,7.05
2022-08-07T10:01:51.500Z,5.91
2022-08-07T10:04:38.410Z,6.77
2022-08-07T10:07:24.470Z,6.43
2022-08-07T10:10:20.979Z,5.73
2022-08-07T10:12:53.625Z,6.29
2022-08-07T10:15:44.597Z,6.82
2022-08-07T10:18:35.274Z,6.32
2022-08-07T10:22:14.841Z,6.88
2022-08-07T10:24:33.663Z,6.57
2022-08-07T10:27:18.348Z,6.50
2022-08-07T10:30:07.303Z,5.86
2022-08-07T10:33:00.054Z,5.67
2022-08-07T10:36:11.468Z,5.45
2022-08-07T10:39:04.358Z,6.64
2022-08-07T10:41:46.495Z,5.73
2022-08-07T10:44:38.337Z,5.77
2022-08-07T10:47:16.295Z,5.74
2022-08-07T10:50:29.145Z,5.75
2022-08-07T10:53:28.450Z,6.28
2022-08-07T10:56:33.185Z,5.79
2022-08-07T10:59:24.661Z,6.40
2022-08-07T11:02:34.341Z,6.18
2022-08-07T11:05:21.796Z,5.82
2022-08-07T11:08:11.938Z,5.69
2022-08-07T11:10:59.402Z,4.95
2022-08-07T11:14:45.363Z,5.09
2022-08-07T11:16:30.702Z,5.08
2022-08-07T11:19:10.291Z,5.28
2022-08-07T11:22:33.309Z,4.76
2022-08-07T11:25:23.511Z,5.17
2022-08-07T11:28:04.467Z,4.65
2022-08-07T11:30:49.306Z,4.77
2022-08-07T11:33:54.354Z,4.49
2022-08-07T11:36:30.990Z,4.80
2022-08-07T11:39:39.698Z,5.04
2022-08-07T11:42:29.770Z,4.74
2022-08-07T11:45:20.533Z,4.87
2022-08-07T11:48:18.282Z,4.86
2022-08-07T11:51:22.893Z,5.19
2022-08-07T11:54:25.293Z,5.30
2022-08-07T11:58:00.792Z,5.50
2022-08-07T12:00:32.172Z,5.15
2022-08-07T12:03:41.348Z,5.19
2022-08-07T12:06:38.857Z,4.99
2022-08-07T12:09:38.354Z,4.48
2022-08-07T12:12:18.797Z,5.07
2022-08-07T12:15:00.588Z,5.32
2022-08-07T12:17:59.479Z,5.12
2022-08-07T12:20:38.597Z,4.56
2022-08-07T12:24:07.237Z,4.63
2022-08-07T12:26:46.595Z,5.04
2022-08-07T12:29:37.908Z,5.19
2022-08-07T12:32:15.326Z,4.77
2022-08-07T12:34:49.148Z,5.25
2022-08-07T12:37:23.316Z,5.23
2022-08-07T12:39:55.381Z,5.15
2022-08-07T12:42:32.035Z,5.60
2022-08-07T12:45:09.536Z,5.42
2022-08-07T12:47:54.042Z,5.36
2022-08-07T12:50:40.360Z,5.88
2022-08-07T12:54:03.078Z,5.62
2022-08-07T12:56:55.022Z,5.32
2022-08-07T12:59:33.031Z,5.58
2022-08-07T13:02:33.316Z,5.51
2022-08-07T13:06:04.043Z,5.89
2022-08-07T13:10:10.945Z,5.71
2022-08-07T13:12:40.993Z,5.31
2022-08-07T13:15:29.579Z,6.13
2022-08-07T13:18:10.970Z,6.64
2022-08-07T13:21:13.902Z,6.44
2022-08-07T13:24:04.655Z,6.48
2022-08-07T13:26:46.231Z,6.62
2022-08-07T13:29:25.258Z,6.54
2022-08-07T13:32:15.287Z,6.51
2022-08-07T13:35:03.250Z,6.71
2022-08-07T13:37:55.422Z,7.09
2022-08-07T13:40:34.946Z,7.00
2022-08-07T13:43:13.826Z,6.79
2022-08-07T13:46:12.042Z,7.26
2022-08-07T13:48:39.681Z,7.38
2022-08-07T13:51:28.153Z,7.56
2022-08-07T13:54:03.283Z,7.56
2022-08-07T13:56:40.879Z,7.23
2022-08-07T13:59:17.881Z,7.27
2022-08-07T14:02:03.862Z,7.11
2022-08-07T14:04:48.992Z,7.20
2022-08-07T14:07:22.816Z,7.54
2022-08-07T14:10:12.608Z,7.59
2022-08-07T14:12:56.360Z,6.93
2022-08-07T14:15:35.112Z,7.82
2022-08-07T14:18:32.549Z,6.99
2022-08-07T14:22:01.286Z,7.34
2022-08-07T14:24:14.033Z,7.17
2022-08-07T14:26:51.815Z,7.16
2022-08-07T14:30:05.723Z,7.60
2022-08-07T14:32:19.140Z,7.42
2022-08-07T14:34:49.534Z,8.03
2022-08-07T14:37:39.077Z,8.45
2022-08-07T14:40:26.574Z,8.25
2022-08-07T14:43:58.983Z,8.18
2022-08-07T14:45:57.615Z,8.62
2022-08-07T14:48:32.632Z,8.84
2022-08-07T14:54:30.077Z,9.17
2022-08-07T14:56:50.885Z,9.50
2022-08-07T15:00:04.311Z,9.34
2022-08-07T15:05:19.779Z,9.58
2022-08-07T15:07:51.832Z,10.00
2022-08-07T15:10:29.647Z,9.74
2022-08-07T15:13:25.427Z,9.27
2022-08-07T15:19:00.714Z,10.24
2022-08-07T15:21:43.730Z,9.77
2022-08-07T15:27:22.397Z,10.31
2022-08-07T15:30:10.332Z,10.63
2022-08-07T15:32:50.883Z,10.61
2022-08-07T15:36:00.517Z,10.62
2022-08-07T15:38:51.919Z,10.80
2022-08-07T15:42:44.164Z,10.89
2022-08-07T15:44:15.521Z,11.31
2022-08-07T15:50:04.877Z,11.01
2022-08-07T15:52:30.006Z,11.67
2022-08-07T15:55:09.069Z,11.85
2022-08-07T15:57:48.747Z,12.05
2022-08-07T16:00:31.662Z,11.78
2022-08-07T16:03:20.457Z,11.79
2022-08-07T16:05:53.305Z,12.10
2022-08-07T16:08:32.552Z,12.76
2022-08-07T16:11:26.831Z,12.52
2022-08-07T16:14:22.450Z,12.89
2022-08-07T16:17:15.961Z,13.04
2022-08-07T16:19:58.730Z,12.53
2022-08-07T16:22:38.048Z,13.68
2022-08-07T16:25:23.266Z,13.95
2022-08-07T16:30:05.491Z,13.70
2022-08-07T16:31:58.215Z,14.03
2022-08-07T16:34:57.210Z,14.14
2022-08-07T16:38:05.673Z,14.69
2022-08-07T16:41:02.812Z,14.32
2022-08-07T16:44:05.604Z,14.50
2022-08-07T16:47:05.765Z,14.76
2022-08-07T16:50:20.280Z,14.50
2022-08-07T16:53:09.820Z,15.09
2022-08-07T16:55:47.914Z,15.17
2022-08-07T16:59:02.278Z,14.92
2022-08-07T17:01:34.288Z,14.42
2022-08-07T17:04:27.651Z,15.40
2022-08-07T17:07:28.564Z,15.41
2022-08-07T17:10:54.373Z,15.18
2022-08-07T17:14:19.386Z,15.66
2022-08-07T17:17:04.949Z,16.00
2022-08-07T17:20:01.913Z,16.26
2022-08-07T17:23:17.115Z,15.89
2022-08-07T17:26:04.311Z,16.49
2022-08-07T17:28:49.687Z,16.59
2022-08-07T17:31:24.119Z,16.86
2022-08-07T17:34:34.647Z,16.37
2022-08-07T17:37:09.830Z,16.94
2022-08-07T17:40:05.465Z,16.97
2022-08-07T17:42:58.225Z,17.20
2022-08-07T17:45:42.199Z,16.76
2022-08-07T17:48:30.655Z,17.04
2022-08-07T17:51:02.892Z,17.53
2022-08-07T17:54:00.079Z,17.17
2022-08-07T17:56:35.501Z,17.23
2022-08-07T17:59:10.632Z,17.07
2022-08-07T18:02:09.130Z,16.94
2022-08-07T18:05:21.571Z,17.15
2022-08-07T18:08:23.890Z,17.33
2022-08-07T18:12:06.698Z,17.13
2022-08-07T18:14:37.606Z,17.88
2022-08-07T18:18:33.204Z,18.05
2022-08-07T18:21:03.778Z,17.75
2022-08-07T18:23:41.888Z,17.92
2022-08-07T18:26:05.381Z,17.83
2022-08-07T18:30:06.950Z,17.36
2022-08-07T18:32:13.100Z,18.33
2022-08-07T18:35:05.874Z,18.70
2022-08-07T18:38:58.723Z,19.00
2022-08-07T18:40:53.811Z,19.01
2022-08-07T18:43:57.537Z,19.23
2022-08-07T18:46:43.094Z,19.15
2022-08-07T18:50:31.640Z,19.15
2022-08-07T18:52:41.017Z,19.05
2022-08-07T18:55:43.305Z,19.50
2022-08-07T18:58:51.851Z,19.26
2022-08-07T19:02:18.324Z,19.49
2022-08-07T19:05:10.031Z,19.30
2022-08-07T19:08:05.231Z,19.39
2022-08-07T19:10:49.902Z,19.38
2022-08-07T19:13:29.265Z,19.44
2022-08-07T19:17:05.086Z,19.48
2022-08-07T19:19:28.066Z,19.80
2022-08-07T19:22:08.267Z,19.72
2022-08-07T19:24:48.798Z,20.09
2022-08-07T19:28:58.102Z,20.18
2022-08-07T19:31:02.940Z,20.49
2022-08-07T19:33:13.129Z,20.46
2022-08-07T19:35:55.122Z,20.74
2022-08-07T19:38:29.052Z,21.20
2022-08-07T19:41:03.486Z,20.82
2022-08-07T19:43:49.977Z,21.40
2022-08-07T19:46:26.622Z,20.72
2022-08-07T19:49:05.727Z,21.25
2022-08-07T19:51:53.079Z,20.80
2022-08-07T19:54:31.146Z,20.76
2022-08-07T19:58:03.628Z,21.03
2022-08-07T20:00:10.603Z,20.69
2022-08-07T20:02:51.849Z,20.33
2022-08-07T20:05:30.290Z,20.56
2022-08-07T20:08:31.733Z,20.27
2022-08-07T20:11:27.011Z,19.87
2022-08-07T20:14:20.937Z,20.51
2022-08-07T20:17:02.649Z,20.21
2022-08-07T20:19:48.234Z,20.35
2022-08-07T20:22:34.233Z,20.25
2022-08-07T20:25:19.377Z,20.38
2022-08-07T20:27:54.378Z,20.22
2022-08-07T20:30:39.837Z,20.05
2022-08-07T20:33:36.700Z,20.02
2022-08-07T20:36:10.150Z,20.06
2022-08-07T20:38:59.927Z,20.43
2022-08-07T20:41:34.198Z,20.55
2022-08-07T20:44:26.237Z,20.76
2022-08-07T20:47:05.420Z,20.65
2022-08-07T20:49:59.987Z,21.33
2022-08-07T20:52:50.404Z,21.13
2022-08-07T20:55:16.274Z,21.24
2022-08-07T20:58:02.904Z,21.60
2022-08-07T21:00:44.683Z,21.56
2022-08-07T21:03:25.564Z,21.41
2022-08-07T21:06:28.091Z,21.41
2022-08-07T21:09:15.118Z,21.43
2022-08-07T21:11:49.978Z,22.16
2022-08-07T21:14:33.040Z,21.82
2022-08-07T21:18:17.525Z,22.05
2022-08-07T21:20:04.995Z,22.40
2022-08-07T21:22:51.384Z,22.44
2022-08-07T21:25:45.030Z,22.22
2022-08-07T21:28:48.961Z,22.13
2022-08-07T21:31:49.159Z,22.27
2022-08-07T21:34:48.987Z,22.89
2022-08-07T21:37:26.455Z,22.69
2022-08-07T21:40:36.082Z,22.63
2022-08-07T21:43:55.976Z,22.96
2022-08-07T21:46:33.171Z,23.41
2022-08-07T21:49:27.763Z,23.20
2022-08-07T21:52:13.617Z,23.35
2022-08-07T21:55:02.838Z,23.16
2022-08-07T21:57:44.781Z,23.77
2022-08-07T22:00:25.462Z,23.79
2022-08-07T22:03:03.630Z,23.88
2022-08-07T22:05:48.324Z,24.15
2022-08-07T22:08:22.022Z,24.22
2022-08-07T22:11:00.670Z,24.18
2022-08-07T22:13:51.848Z,24.35
2022-08-07T22:16:53.675Z,23.56
2022-08-07T22:19:44.461Z,24.33
2022-08-07T22:22:29.333Z,24.21
2022-08-07T22:25:12.124Z,24.22
2022-08-07T22:28:06.413Z,24.55
2022-08-07T22:30:55.105Z,24.35
2022-08-07T22:33:52.598Z,24.60
2022-08-07T22:36:38.514Z,24.23
2022-08-07T22:39:39.546Z,24.66
2022-08-07T22:42:25.963Z,24.74
2022-08-07T22:45:03.693Z,24.85
2022-08-07T22:47:38.787Z,24.77
2022-08-07T22:50:07.495Z,25.03
2022-08-07T22:52:57.538Z,24.93
2022-08-07T22:55:46.110Z,25.08
2022-08-07T22:58:37.604Z,25.11
2022-08-07T23:01:42.045Z,25.72
2022-08-07T23:04:58.320Z,25.50
2022-08-07T23:07:54.086Z,25.29
2022-08-07T23:10:38.597Z,25.79
2022-08-07T23:13:48.769Z,25.53
2022-08-07T23:16:55.401Z,25.44
2022-08-07T23:19:52.117Z,25.76
2022-08-07T23:22:32.953Z,25.37
2022-08-07T23:25:29.478Z,25.15
2022-08-07T23:28:22.805Z,25.09
2022-08-07T23:32:49.464Z,25.18
2022-08-07T23:34:38.273Z,25.47
2022-08-07T23:37:23.923Z,25.42
2022-08-07T23:40:30.285Z,25.39
2022-08-07T23:43:16.704Z,26.13
2022-08-07T23:46:10.963Z,25.96
2022-08-07T23:49:24.410Z,25.95
2022-08-07T23:52:57.952Z,24.68
2022-08-07T23:55:53.635Z,26.15
2022-08-07T23:58:44.188Z,26.89
